Time;durP1;ratioP1;P1;durP2;ratioP2;P2;SDS_P1;SDS_P2;PMS_P1;PMS_P2;Temp;Humidity;BMP_temperature;BMP_pressure;BME280_temperature;BME280_humidity;BME280_pressure;Samples;Min_cycle;Max_cycle;Signal;HPM_P1;HPM_P2
2022/04/30 00:00:21;;;;;;;0.98;0.70;;;22.70;35.90;;;;;;6182000;28;20041;-51
2022/04/30 00:03:26;;;;;;;0.90;0.70;;;22.80;35.90;;;;;;6162105;28;20127;-53
2022/04/30 00:06:27;;;;;;;0.70;0.70;;;22.80;35.90;;;;;;6181696;28;20041;-55
2022/04/30 00:09:30;;;;;;;1.00;0.90;;;22.80;35.90;;;;;;6190071;28;20053;-56
2022/04/30 00:12:33;;;;;;;0.80;0.77;;;22.70;35.90;;;;;;6157440;28;21046;-52
2022/04/30 00:15:34;;;;;;;0.98;0.63;;;22.80;35.90;;;;;;6176188;28;20116;-48
2022/04/30 00:18:35;;;;;;;;;;;22.80;35.90;;;;;;6191634;28;20141;-48
2022/04/30 00:21:37;;;;;;;1.10;0.50;;;22.70;35.90;;;;;;6188836;28;19921;-50
2022/04/30 00:24:39;;;;;;;0.80;0.50;;;22.80;36.00;;;;;;6190927;28;20370;-50
2022/04/30 00:27:41;;;;;;;1.02;0.93;;;22.70;35.90;;;;;;6190819;28;20049;-50
2022/04/30 00:30:44;;;;;;;1.20;0.80;;;22.80;36.00;;;;;;6191446;28;20041;-50
2022/04/30 00:33:48;;;;;;;0.60;0.60;;;22.80;35.90;;;;;;6189084;28;20207;-50
2022/04/30 00:36:50;;;;;;;0.60;0.60;;;22.70;35.90;;;;;;6190876;28;20060;-47
2022/04/30 00:39:52;;;;;;;0.63;0.60;;;22.80;35.90;;;;;;6190050;28;20138;-50
2022/04/30 00:42:54;;;;;;;0.77;0.50;;;22.70;35.90;;;;;;6190683;28;20134;-50
2022/04/30 00:45:55;;;;;;;0.70;0.70;;;22.60;35.80;;;;;;6178036;28;20049;-51
2022/04/30 00:48:58;;;;;;;0.65;0.60;;;22.80;35.90;;;;;;6195706;28;20056;-51
2022/04/30 00:52:02;;;;;;;0.60;0.50;;;22.80;35.90;;;;;;6184979;28;20160;-48
2022/04/30 00:55:06;;;;;;;0.70;0.50;;;22.80;35.90;;;;;;6170037;28;20552;-48
2022/04/30 00:58:08;;;;;;;0.88;0.57;;;22.60;35.80;;;;;;6181273;28;20038;-49
2022/04/30 01:01:10;;;;;;;0.60;0.50;;;22.70;35.80;;;;;;6182689;28;20042;-47
2022/04/30 01:04:24;;;;;;;0.68;0.65;;;22.60;35.80;;;;;;6181329;28;20451;-48
2022/04/30 01:07:26;;;;;;;;;;;22.80;35.90;;;;;;6186826;28;20049;-49
2022/04/30 01:10:28;;;;;;;0.60;0.60;;;22.80;36.00;;;;;;6167328;28;19925;-51
2022/04/30 01:13:33;;;;;;;0.47;0.40;;;22.80;36.00;;;;;;6184668;28;20187;-49
2022/04/30 01:16:36;;;;;;;0.60;0.60;;;22.70;36.00;;;;;;6183029;28;20799;-47
2022/04/30 01:19:39;;;;;;;0.65;0.60;;;22.80;36.00;;;;;;6185287;28;20048;-49
2022/04/30 01:22:54;;;;;;;1.40;0.52;;;22.60;35.90;;;;;;6166764;28;20068;-48
2022/04/30 01:25:57;;;;;;;0.60;0.50;;;22.70;36.00;;;;;;6189184;28;20345;-50
2022/04/30 01:28:58;;;;;;;0.85;0.50;;;22.60;35.90;;;;;;6180022;28;20084;-47
2022/04/30 01:38:34;;;;;;;0.85;0.60;;;22.70;36.00;;;;;;6180189;28;20077;-47
2022/04/30 01:41:35;;;;;;;0.75;0.60;;;22.70;36.10;;;;;;6177881;28;20866;-47
2022/04/30 01:44:37;;;;;;;0.80;0.80;;;22.70;36.10;;;;;;6180170;28;20053;-52
2022/04/30 01:47:40;;;;;;;0.60;0.47;;;22.70;36.10;;;;;;6178754;28;20290;-46
2022/04/30 01:50:43;;;;;;;0.70;0.60;;;22.70;36.10;;;;;;6182043;28;20054;-52
2022/04/30 01:53:45;;;;;;;0.60;0.60;;;22.70;36.20;;;;;;6179624;28;20050;-50
2022/04/30 01:56:46;;;;;;;0.90;0.60;;;22.70;36.20;;;;;;6186281;28;20065;-51
2022/04/30 01:59:52;;;;;;;0.60;0.57;;;22.70;36.20;;;;;;6179894;28;20058;-50
2022/04/30 02:03:04;;;;;;;0.68;0.50;;;22.70;36.20;;;;;;6182998;28;20868;-50
2022/04/30 02:06:07;;;;;;;0.63;0.55;;;22.70;36.20;;;;;;6159760;28;20577;-47
2022/04/30 02:09:09;;;;;;;0.80;0.65;;;22.60;36.20;;;;;;6184380;28;20045;-51
2022/04/30 02:12:11;;;;;;;0.70;0.60;;;22.70;36.30;;;;;;6193138;28;20540;-49
2022/04/30 02:15:14;;;;;;;0.70;0.50;;;22.60;36.30;;;;;;6185493;28;20324;-48
2022/04/30 02:18:16;;;;;;;0.93;0.70;;;22.60;36.20;;;;;;6185851;28;20052;-52
2022/04/30 02:21:21;;;;;;;0.60;0.60;;;22.60;36.30;;;;;;6186378;28;20151;-50
2022/04/30 02:24:24;;;;;;;0.90;0.50;;;22.60;36.30;;;;;;6185134;28;20120;-48
2022/04/30 02:27:27;;;;;;;1.00;0.68;;;22.50;36.30;;;;;;6175179;28;20146;-49
2022/04/30 02:30:29;;;;;;;0.70;0.65;;;22.60;36.30;;;;;;6183013;28;20499;-50
2022/04/30 02:33:30;;;;;;;0.73;0.63;;;22.60;36.40;;;;;;6184298;28;20371;-48
2022/04/30 02:36:34;;;;;;;;;;;22.60;36.40;;;;;;6185892;28;20306;-48
2022/04/30 02:39:36;;;;;;;0.60;0.60;;;22.60;36.50;;;;;;6184969;28;19929;-50
2022/04/30 02:42:38;;;;;;;0.70;0.60;;;22.60;36.40;;;;;;6186700;28;20060;-48
2022/04/30 02:45:42;;;;;;;0.88;0.70;;;22.60;36.40;;;;;;6186158;28;20397;-50
2022/04/30 02:48:44;;;;;;;0.98;0.70;;;22.50;36.40;;;;;;6168845;28;20045;-50
2022/04/30 02:51:45;;;;;;;0.85;0.77;;;22.50;36.50;;;;;;6184079;28;20045;-48
2022/04/30 02:54:47;;;;;;;;;;;22.60;36.50;;;;;;6181889;28;20622;-50
2022/04/30 03:01:08;;;;;;;1.10;1.00;;;22.60;36.60;;;;;;6184929;28;20441;-49
2022/04/30 03:04:29;;;;;;;1.00;0.70;;;22.50;36.50;;;;;;6185058;28;20163;-48
2022/04/30 03:07:31;;;;;;;;;;;22.50;36.50;;;;;;6187362;28;20450;-48
2022/04/30 03:10:33;;;;;;;;;;;22.50;36.60;;;;;;6183659;28;20050;-48
2022/04/30 03:22:11;;;;;;;0.68;0.60;;;22.40;36.50;;;;;;6174607;28;20233;-49
2022/04/30 03:25:12;;;;;;;0.60;0.60;;;22.40;36.60;;;;;;6178074;28;20065;-50
2022/04/30 03:28:14;;;;;;;;;;;22.40;36.60;;;;;;6179783;28;20049;-47
2022/04/30 03:31:18;;;;;;;0.90;0.80;;;22.40;36.70;;;;;;6183319;28;20035;-47
2022/04/30 03:34:28;;;;;;;1.17;0.70;;;22.40;36.60;;;;;;6185812;28;20360;-50
2022/04/30 03:37:29;;;;;;;0.88;0.73;;;22.30;36.60;;;;;;6182954;28;20868;-49
2022/04/30 03:40:31;;;;;;;;;;;22.30;36.60;;;;;;6182510;28;20791;-50
2022/04/30 03:43:33;;;;;;;0.50;0.50;;;22.50;36.80;;;;;;6191851;28;20079;-48
2022/04/30 03:46:34;;;;;;;0.82;0.73;;;22.30;36.70;;;;;;6173582;28;20052;-50
2022/04/30 03:49:41;;;;;;;0.70;0.70;;;22.30;36.70;;;;;;6173328;28;20175;-48
2022/04/30 03:52:48;;;;;;;0.95;0.70;;;22.40;36.70;;;;;;6170440;28;20046;-48
2022/04/30 03:55:50;;;;;;;0.55;0.55;;;22.40;36.80;;;;;;6168936;28;20732;-48
2022/04/30 03:58:52;;;;;;;;;;;22.40;36.80;;;;;;6174504;28;20369;-48
2022/04/30 04:01:53;;;;;;;0.90;0.60;;;22.20;36.60;;;;;;6177007;28;20023;-48
2022/04/30 04:04:56;;;;;;;1.00;0.60;;;22.60;36.90;;;;;;6170908;28;20168;-51
2022/04/30 04:52:01;;;;;;;;;;;22.20;36.80;;;;;;6169729;28;21010;-48
2022/04/30 04:55:04;;;;;;;0.73;0.60;;;22.20;36.80;;;;;;6029468;28;20474;-49
2022/04/30 04:58:05;;;;;;;0.60;0.60;;;22.20;36.90;;;;;;6181520;28;20052;-49
2022/04/30 05:01:07;;;;;;;;;;;22.20;36.90;;;;;;6161277;28;20380;-47
2022/04/30 05:04:08;;;;;;;0.50;0.50;;;22.20;36.90;;;;;;6178236;28;20195;-47
2022/04/30 05:07:10;;;;;;;;;;;22.30;36.90;;;;;;6178365;28;20645;-50
2022/04/30 05:10:12;;;;;;;0.75;0.50;;;22.20;36.90;;;;;;6162127;28;19932;-49
2022/04/30 05:13:13;;;;;;;;;;;22.20;36.90;;;;;;6180817;28;20500;-47
2022/04/30 05:16:14;;;;;;;0.80;0.50;;;22.20;36.90;;;;;;6171509;28;19925;-51
2022/04/30 05:19:16;;;;;;;0.60;0.50;;;22.20;36.90;;;;;;6176051;28;20694;-51
2022/04/30 05:22:18;;;;;;;;;;;22.00;36.80;;;;;;6174126;28;21065;-48
2022/04/30 05:25:20;;;;;;;0.60;0.60;;;22.10;36.90;;;;;;6176729;28;20344;-48
2022/04/30 05:28:22;;;;;;;0.57;0.55;;;22.10;36.90;;;;;;6185560;28;20053;-52
2022/04/30 05:31:23;;;;;;;0.93;0.40;;;22.10;36.90;;;;;;6192407;28;20629;-50
2022/04/30 05:34:25;;;;;;;0.70;0.68;;;22.10;36.90;;;;;;6182571;28;20119;-54
2022/04/30 05:37:27;;;;;;;0.98;0.70;;;22.10;37.00;;;;;;6189911;28;20056;-51
2022/04/30 05:40:28;;;;;;;0.55;0.50;;;22.10;36.90;;;;;;6181064;28;20140;-53
2022/04/30 05:43:30;;;;;;;;;;;22.50;37.20;;;;;;6183692;28;20042;-50
2022/04/30 05:46:31;;;;;;;0.68;0.50;;;22.10;37.00;;;;;;6182162;28;20895;-49
2022/04/30 05:49:34;;;;;;;0.55;0.55;;;22.10;37.00;;;;;;6191552;28;20219;-50
2022/04/30 05:52:36;;;;;;;0.57;0.50;;;22.10;36.90;;;;;;6191845;28;20069;-50
2022/04/30 05:55:39;;;;;;;0.93;0.40;;;22.10;37.00;;;;;;6180645;28;20050;-53
2022/04/30 05:58:41;;;;;;;0.70;0.50;;;22.00;36.90;;;;;;6186541;28;20761;-52
2022/04/30 06:01:42;;;;;;;;;;;22.10;37.10;;;;;;6188724;28;20160;-53
2022/04/30 06:04:46;;;;;;;;;;;22.10;37.00;;;;;;6192661;28;19932;-51
2022/04/30 06:07:49;;;;;;;0.50;0.50;;;22.00;37.00;;;;;;6191477;28;19925;-49
2022/04/30 06:10:50;;;;;;;0.60;0.60;;;22.00;37.00;;;;;;6189832;28;20084;-48
2022/04/30 06:13:52;;;;;;;;;;;22.00;37.10;;;;;;6191037;28;20133;-53
2022/04/30 06:16:55;;;;;;;0.77;0.60;;;22.10;37.20;;;;;;6193547;28;20672;-51
2022/04/30 06:19:57;;;;;;;0.70;0.60;;;22.00;37.10;;;;;;6182019;28;20507;-51
2022/04/30 06:22:59;;;;;;;;;;;22.00;37.10;;;;;;6173626;28;20061;-50
2022/04/30 06:26:01;;;;;;;0.77;0.70;;;22.10;37.30;;;;;;6183783;28;20082;-50
2022/04/30 06:29:03;;;;;;;0.45;0.45;;;22.00;37.20;;;;;;6189514;28;20042;-53
2022/04/30 06:32:05;;;;;;;0.68;0.50;;;22.10;37.20;;;;;;6186834;28;20081;-50
2022/04/30 06:35:07;;;;;;;0.75;0.68;;;22.00;37.20;;;;;;6186201;28;20309;-50
2022/04/30 06:38:09;;;;;;;0.65;0.40;;;22.00;37.30;;;;;;6188323;28;20167;-52
2022/04/30 06:41:10;;;;;;;1.20;0.80;;;22.00;37.30;;;;;;6180575;28;20077;-52
2022/04/30 06:44:12;;;;;;;;;;;22.00;37.30;;;;;;6182741;28;20151;-51
2022/04/30 06:47:13;;;;;;;;;;;22.00;37.40;;;;;;6182515;28;19933;-51
2022/04/30 06:50:15;;;;;;;;;;;21.90;37.40;;;;;;6187668;28;20655;-49
2022/04/30 06:59:45;;;;;;;;;;;22.20;37.50;;;;;;6189621;28;20655;-49
2022/04/30 07:02:46;;;;;;;;;;;21.90;37.40;;;;;;6192404;28;20884;-48
2022/04/30 07:05:48;;;;;;;;;;;22.30;37.70;;;;;;6179585;28;19936;-48
2022/04/30 07:08:50;;;;;;;;;;;22.10;37.50;;;;;;6176668;28;19921;-50
2022/04/30 07:11:53;;;;;;;;;;;22.00;37.60;;;;;;6182139;28;20596;-50
2022/04/30 07:14:54;;;;;;;;;;;21.90;37.50;;;;;;6190567;28;19929;-56
2022/04/30 07:17:56;;;;;;;;;;;22.30;37.80;;;;;;6194401;28;20766;-51
2022/04/30 07:20:57;;;;;;;;;;;22.00;37.60;;;;;;6185125;28;19932;-49
2022/04/30 07:23:59;;;;;;;;;;;22.10;37.90;;;;;;6192732;28;20914;-53
2022/04/30 07:27:01;;;;;;;;;;;22.20;37.70;;;;;;6189410;28;19925;-51
2022/04/30 07:30:03;;;;;;;;;;;22.10;37.60;;;;;;6193064;28;19936;-52
2022/04/30 07:33:04;;;;;;;;;;;22.20;37.70;;;;;;6174157;28;19935;-50
2022/04/30 07:36:06;;;;;;;;;;;22.10;37.70;;;;;;6188709;28;21056;-48
2022/04/30 07:39:08;;;;;;;;;;;22.20;37.70;;;;;;6171252;28;20730;-53
2022/04/30 07:42:10;;;;;;;;;;;22.00;37.60;;;;;;6186145;28;20040;-53
2022/04/30 07:45:11;;;;;;;;;;;22.20;37.70;;;;;;6172398;28;19933;-58
2022/04/30 07:48:13;;;;;;;;;;;22.00;37.60;;;;;;6182432;28;19933;-51
2022/04/30 07:51:18;;;;;;;;;;;22.20;37.80;;;;;;6190973;28;20815;-52
2022/04/30 07:54:20;;;;;;;;;;;22.50;37.90;;;;;;6191547;28;20770;-48
2022/04/30 07:57:22;;;;;;;;;;;22.10;37.70;;;;;;6158349;28;19929;-53
2022/04/30 08:00:24;;;;;;;;;;;22.10;37.70;;;;;;6193015;28;20040;-55
2022/04/30 08:03:25;;;;;;;;;;;22.20;37.80;;;;;;6187531;28;19936;-49
2022/04/30 08:06:27;;;;;;;;;;;22.10;37.70;;;;;;6194488;28;21129;-49
2022/04/30 08:09:29;;;;;;;;;;;22.10;37.70;;;;;;6191931;28;20908;-52
2022/04/30 08:12:30;;;;;;;;;;;22.20;37.70;;;;;;6188708;28;19928;-49
2022/04/30 08:15:32;;;;;;;;;;;22.20;37.80;;;;;;6191357;28;20028;-57
2022/04/30 08:18:33;;;;;;;;;;;22.30;37.80;;;;;;6192984;28;19928;-50
2022/04/30 08:21:35;;;;;;;;;;;22.30;37.80;;;;;;6188081;28;19925;-51
2022/04/30 08:24:37;;;;;;;;;;;22.10;37.60;;;;;;6193393;28;20012;-50
2022/04/30 08:27:38;;;;;;;;;;;22.30;37.70;;;;;;6190889;28;19998;-51
2022/04/30 08:30:41;;;;;;;;;;;22.50;37.80;;;;;;6190166;28;20048;-47
2022/04/30 08:33:43;;;;;;;;;;;22.50;37.80;;;;;;6181063;28;19928;-50
2022/04/30 08:36:45;;;;;;;;;;;22.30;37.70;;;;;;6188681;28;19933;-49
2022/04/30 08:39:48;;;;;;;;;;;22.30;37.70;;;;;;6192606;28;20815;-51
2022/04/30 08:42:49;;;;;;;;;;;22.30;37.70;;;;;;6186563;28;19921;-53
2022/04/30 08:45:51;;;;;;;;;;;22.30;37.70;;;;;;6189974;28;19935;-52
2022/04/30 08:48:52;;;;;;;;;;;22.20;37.50;;;;;;6191433;28;19940;-49
2022/04/30 08:51:54;;;;;;;;;;;22.50;37.70;;;;;;6190570;28;19972;-49
2022/04/30 08:54:55;;;;;;;;;;;22.30;37.60;;;;;;6191685;28;19929;-50
2022/04/30 08:57:57;;;;;;;;;;;22.50;37.70;;;;;;6190296;28;19928;-48
2022/04/30 09:01:01;;;;;;;;;;;22.60;37.70;;;;;;6175120;28;19925;-50
2022/04/30 09:04:02;;;;;;;;;;;22.60;37.80;;;;;;6188517;28;19994;-51
2022/04/30 09:07:04;;;;;;;;;;;22.60;37.80;;;;;;6186309;28;21210;-48
2022/04/30 09:10:06;;;;;;;;;;;22.50;37.60;;;;;;6189829;28;19921;-51
2022/04/30 09:13:09;;;;;;;;;;;22.40;37.50;;;;;;6187936;28;19948;-51
2022/04/30 09:16:20;;;;;;;;;;;22.70;37.80;;;;;;6191184;28;20026;-48
2022/04/30 09:19:21;;;;;;;;;;;22.60;37.60;;;;;;6175838;28;19979;-48
2022/04/30 09:22:28;;;;;;;;;;;22.60;37.60;;;;;;6178257;28;19929;-49
2022/04/30 09:25:30;;;;;;;;;;;22.70;37.70;;;;;;6177497;28;20104;-50
2022/04/30 09:28:38;;;;;;;;;;;22.60;37.60;;;;;;6175175;28;19925;-49
2022/04/30 09:31:39;;;;;;;;;;;22.70;37.70;;;;;;6177893;28;20058;-47
2022/04/30 09:37:57;;;;;;;;;;;22.70;37.70;;;;;;6158633;28;20107;-48
2022/04/30 09:41:00;;;;;;;;;;;22.80;37.70;;;;;;6175814;28;19929;-48
2022/04/30 09:44:04;;;;;;;;;;;22.50;37.50;;;;;;6174802;28;20123;-48
2022/04/30 09:47:07;;;;;;;;;;;22.70;37.60;;;;;;6176696;28;19929;-49
2022/04/30 09:56:45;;;;;;;;;;;23.00;37.70;;;;;;6176913;28;19925;-49
2022/04/30 09:59:51;;;;;;;;;;;22.80;37.60;;;;;;6178059;28;19968;-48
2022/04/30 10:02:58;;;;;;;;;;;22.80;37.60;;;;;;6176693;28;20944;-47
2022/04/30 10:06:00;;;;;;;;;;;22.90;37.60;;;;;;6176510;28;19925;-46
2022/04/30 10:09:06;;;;;;;;;;;22.90;37.60;;;;;;6176949;28;19935;-47
2022/04/30 10:12:11;;;;;;;;;;;23.00;37.60;;;;;;6176536;28;19928;-49
2022/04/30 10:15:15;;;;;;;;;;;22.80;37.50;;;;;;6173828;28;20151;-49
2022/04/30 10:18:18;;;;;;;;;;;22.80;37.50;;;;;;6177368;28;19926;-48
2022/04/30 10:21:22;;;;;;;;;;;22.70;37.40;;;;;;6175125;28;20177;-49
2022/04/30 10:24:32;;;;;;;;;;;22.90;37.50;;;;;;6176618;28;20340;-48
2022/04/30 10:27:38;;;;;;;;;;;23.20;37.70;;;;;;6174745;28;20395;-51
2022/04/30 10:30:40;;;;;;;;;;;23.00;37.50;;;;;;6160754;28;19929;-48
2022/04/30 10:33:47;;;;;;;;;;;23.10;37.60;;;;;;6178720;28;20358;-49
2022/04/30 10:36:53;;;;;;;;;;;22.90;37.50;;;;;;6177702;28;20138;-49
2022/04/30 10:39:55;;;;;;;;;;;23.10;37.50;;;;;;6176150;28;20269;-48
2022/04/30 10:42:57;;;;;;;;;;;23.10;37.50;;;;;;6177302;28;20472;-47
2022/04/30 10:45:59;;;;;;;;;;;22.90;37.40;;;;;;6177820;28;20366;-52
2022/04/30 10:49:00;;;;;;;;;;;23.20;37.60;;;;;;6176612;28;20117;-47
2022/04/30 10:52:02;;;;;;;;;;;23.00;37.50;;;;;;6177147;28;20401;-49
2022/04/30 10:55:04;;;;;;;;;;;23.10;37.50;;;;;;6168659;28;19932;-50
2022/04/30 10:58:06;;;;;;;;;;;23.10;37.50;;;;;;6176960;28;19925;-48
2022/04/30 11:01:11;;;;;;;;;;;23.30;37.60;;;;;;6157341;28;19958;-48
2022/04/30 11:04:16;;;;;;;;;;;23.10;37.50;;;;;;6173544;28;20238;-50
2022/04/30 11:07:18;;;;;;;;;;;23.30;37.60;;;;;;6157749;28;20164;-49
2022/04/30 11:10:19;;;;;;;;;;;23.00;37.40;;;;;;6180062;28;20011;-48
2022/04/30 11:13:21;;;;;;;;;;;23.10;37.50;;;;;;6172575;28;20930;-49
2022/04/30 11:16:27;;;;;;;;;;;23.20;37.50;;;;;;6157264;28;20298;-47
2022/04/30 11:19:29;;;;;;;;;;;23.20;37.50;;;;;;6176600;28;19930;-50
2022/04/30 11:22:30;;;;;;;;;;;23.20;37.50;;;;;;6165946;28;20698;-49
2022/04/30 11:25:32;;;;;;;;;;;23.20;37.50;;;;;;6166745;28;19975;-47
2022/04/30 11:28:34;;;;;;;;;;;23.20;37.50;;;;;;6149364;28;20739;-49
2022/04/30 11:31:36;;;;;;;;;;;23.20;37.50;;;;;;6147301;28;19933;-49
2022/04/30 11:34:39;;;;;;;;;;;23.20;37.50;;;;;;6167037;28;20253;-47
2022/04/30 11:37:42;;;;;;;;;;;23.00;37.40;;;;;;6162984;28;20785;-48
2022/04/30 11:40:44;;;;;;;;;;;23.30;37.50;;;;;;6162614;28;20206;-49
2022/04/30 11:43:56;;;;;;;;;;;23.30;37.50;;;;;;6165456;28;20229;-51
2022/04/30 11:46:57;;;;;;;;;;;23.30;37.50;;;;;;6170974;28;19956;-50
2022/04/30 11:50:02;;;;;;;;;;;23.20;37.40;;;;;;6163967;28;19972;-50
2022/04/30 11:53:06;;;;;;;;;;;23.20;37.40;;;;;;6172438;28;20761;-49
2022/04/30 11:56:08;;;;;;;;;;;23.30;37.50;;;;;;6166829;28;20200;-47
2022/04/30 11:59:10;;;;;;;;;;;23.30;37.40;;;;;;6169496;28;20137;-47
2022/04/30 12:02:14;;;;;;;;;;;23.10;37.30;;;;;;6151096;28;19928;-48
2022/04/30 12:05:16;;;;;;;;;;;23.40;37.50;;;;;;6156502;28;19932;-47
2022/04/30 12:08:18;;;;;;;;;;;23.40;37.50;;;;;;6131732;28;20825;-50
2022/04/30 12:11:20;;;;;;;;;;;23.40;37.50;;;;;;6156161;28;19929;-48
2022/04/30 12:14:22;;;;;;;;;;;23.40;37.50;;;;;;6166050;28;19964;-51
2022/04/30 12:17:26;;;;;;;;;;;23.40;37.50;;;;;;6149182;28;20248;-48
2022/04/30 12:27:10;;;;;;;;;;;23.40;37.40;;;;;;6160766;28;20333;-49
2022/04/30 12:30:14;;;;;;;;;;;23.30;37.30;;;;;;6163269;28;20048;-50
2022/04/30 12:33:16;;;;;;;;;;;23.50;37.50;;;;;;6157629;28;20310;-47
2022/04/30 12:36:18;;;;;;;;;;;23.50;37.40;;;;;;6165766;28;20333;-47
2022/04/30 12:39:20;;;;;;;;;;;23.40;37.40;;;;;;6146957;28;21098;-51
2022/04/30 12:42:22;;;;;;;;;;;23.50;37.40;;;;;;6147693;28;20280;-48
2022/04/30 12:45:24;;;;;;;;;;;23.60;37.50;;;;;;6157096;28;19925;-50
2022/04/30 12:48:26;;;;;;;;;;;23.50;37.40;;;;;;6164126;28;20298;-50
2022/04/30 12:51:27;;;;;;;;;;;23.60;37.40;;;;;;6157273;28;20767;-50
2022/04/30 12:54:28;;;;;;;;;;;23.50;37.40;;;;;;6141705;28;20374;-48
2022/04/30 12:57:35;;;;;;;;;;;23.60;37.40;;;;;;6155836;28;20243;-52
2022/04/30 13:00:37;;;;;;;;;;;23.40;37.30;;;;;;6165815;28;19924;-50
2022/04/30 13:03:40;;;;;;;;;;;23.60;37.40;;;;;;6159294;28;19928;-51
2022/04/30 13:06:42;;;;;;;;;;;23.60;37.30;;;;;;6175613;28;20121;-48
2022/04/30 13:16:14;;;;;;;;;;;23.60;37.30;;;;;;6168524;28;19989;-49
2022/04/30 13:19:15;;;;;;;;;;;23.60;37.30;;;;;;6165783;28;19983;-49
2022/04/30 13:22:17;;;;;;;;;;;23.70;37.40;;;;;;6173375;28;19948;-50
2022/04/30 13:25:19;;;;;;;;;;;23.70;37.60;;;;;;6174052;28;19979;-50
2022/04/30 13:28:20;;;;;;;;;;;23.70;37.30;;;;;;6170576;28;19925;-50
2022/04/30 13:31:22;;;;;;;;;;;23.70;37.30;;;;;;6167154;28;19929;-49
2022/04/30 13:34:24;;;;;;;;;;;24.00;37.40;;;;;;6176993;28;19967;-50
2022/04/30 13:37:25;;;;;;;;;;;23.70;37.30;;;;;;6170325;28;19925;-49
2022/04/30 13:40:27;;;;;;;;;;;23.70;37.20;;;;;;6148121;28;20038;-48
2022/04/30 13:43:28;;;;;;;;;;;23.70;37.30;;;;;;6145267;28;19972;-48
2022/04/30 13:46:30;;;;;;;;;;;23.80;37.30;;;;;;6164362;28;20290;-49
2022/04/30 13:49:32;;;;;;;;;;;23.60;37.20;;;;;;6170455;28;20406;-48
2022/04/30 13:52:35;;;;;;;;;;;23.80;37.30;;;;;;6172466;28;20245;-49
2022/04/30 13:55:36;;;;;;;;;;;23.80;37.20;;;;;;6159203;28;19960;-48
2022/04/30 13:58:37;;;;;;;;;;;23.90;37.30;;;;;;6153681;28;19971;-50
2022/04/30 14:01:46;;;;;;;;;;;23.80;37.20;;;;;;6167690;28;20594;-50
2022/04/30 14:04:47;;;;;;;;;;;23.80;37.20;;;;;;6168775;28;20044;-47
2022/04/30 14:07:49;;;;;;;;;;;24.10;37.40;;;;;;6153370;28;20591;-48
2022/04/30 14:10:50;;;;;;;;;;;23.60;37.10;;;;;;6171387;28;20713;-48
2022/04/30 14:18:15;;;;;;;;;;;23.90;37.20;;;;;;6161364;28;20356;-51
2022/04/30 14:20:29;;;;;;;;;;;23.90;37.30;;;;;;6163140;28;20174;-49
2022/04/30 14:23:31;;;;;;;;;;;23.90;37.20;;;;;;6176114;28;20211;-47
2022/04/30 14:26:32;;;;;;;;;;;23.90;37.20;;;;;;6174920;28;19928;-47
2022/04/30 14:29:34;;;;;;;;;;;24.00;37.20;;;;;;6172764;28;20024;-52
2022/04/30 14:32:37;;;;;;;;;;;23.80;37.10;;;;;;6146142;28;20848;-48
2022/04/30 14:35:39;;;;;;;;;;;24.00;37.20;;;;;;6168817;28;21072;-51
2022/04/30 14:38:40;;;;;;;;;;;24.00;37.20;;;;;;6154438;28;20756;-51
2022/04/30 14:41:44;;;;;;;;;;;24.00;37.20;;;;;;6170811;28;20355;-48
2022/04/30 14:44:45;;;;;;;;;;;24.00;37.20;;;;;;6168647;28;19929;-51
2022/04/30 14:47:47;;;;;;;;;;;24.00;37.20;;;;;;6173653;28;20527;-50
2022/04/30 14:50:49;;;;;;;;;;;23.90;37.10;;;;;;6169938;28;20615;-52
2022/04/30 14:53:50;;;;;;;;;;;24.00;37.10;;;;;;6173027;28;20046;-49
2022/04/30 14:56:51;;;;;;;;;;;24.00;37.10;;;;;;6176773;28;19925;-50
2022/04/30 14:59:52;;;;;;;;;;;24.00;37.10;;;;;;6174848;28;19932;-52
2022/04/30 15:02:54;;;;;;;;;;;24.00;37.10;;;;;;6174931;28;20878;-48
2022/04/30 15:05:57;;;;;;;;;;;24.00;37.10;;;;;;6176874;28;19924;-49
2022/04/30 15:08:58;;;;;;;;;;;24.10;37.10;;;;;;6171804;28;20388;-51
2022/04/30 15:12:00;;;;;;;;;;;24.10;37.10;;;;;;6171738;28;19932;-48
2022/04/30 15:15:01;;;;;;;;;;;24.00;37.10;;;;;;6174830;28;20154;-51
2022/04/30 15:18:03;;;;;;;;;;;24.00;37.00;;;;;;6165285;28;19929;-48
2022/04/30 15:21:04;;;;;;;;;;;24.10;37.10;;;;;;6147322;28;20681;-49
2022/04/30 15:24:06;;;;;;;;;;;24.00;37.10;;;;;;6149451;28;20376;-49
2022/04/30 15:27:07;;;;;;;;;;;24.00;37.10;;;;;;6171388;28;20390;-52
2022/04/30 15:30:09;;;;;;;;;;;24.20;37.20;;;;;;6174744;28;19924;-49
2022/04/30 15:33:11;;;;;;;;;;;23.90;37.10;;;;;;6168319;28;20156;-51
2022/04/30 15:36:13;;;;;;;;;;;24.00;37.20;;;;;;6168909;28;20157;-49
2022/04/30 15:39:14;;;;;;;;;;;24.10;37.20;;;;;;6169333;28;20439;-48
2022/04/30 15:42:15;;;;;;;;;;;24.00;37.20;;;;;;6165776;28;20758;-48
2022/04/30 15:45:17;;;;;;;;;;;24.00;37.20;;;;;;6170723;28;19925;-50
2022/04/30 15:51:35;;;;;;;;;;;24.00;37.30;;;;;;6173262;28;20410;-48
2022/04/30 15:54:36;;;;;;;;;;;23.90;37.20;;;;;;6150064;28;19982;-50
2022/04/30 15:57:38;;;;;;;;;;;23.90;37.30;;;;;;6169532;28;20476;-52
2022/04/30 16:00:39;;;;;;;;;;;24.00;37.40;;;;;;6170063;28;20146;-49
2022/04/30 16:03:42;;;;;;;;;;;23.90;37.30;;;;;;6173855;28;20289;-48
2022/04/30 16:06:43;;;;;;;;;;;23.90;37.30;;;;;;6171645;28;20095;-49
2022/04/30 16:09:45;;;;;;;;;;;23.90;37.30;;;;;;6170743;28;20091;-54
2022/04/30 16:12:48;;;;;;;;;;;23.90;37.30;;;;;;6171292;28;20207;-50
2022/04/30 16:15:49;;;;;;;;;;;23.90;37.30;;;;;;6170055;28;20483;-50
2022/04/30 16:18:52;;;;;;;;;;;23.90;37.30;;;;;;6163116;28;20436;-49
2022/04/30 16:21:54;;;;;;;;;;;23.90;37.40;;;;;;6167495;28;20496;-50
2022/04/30 16:24:56;;;;;;;;;;;23.90;37.40;;;;;;6165956;28;20155;-47
2022/04/30 16:27:57;;;;;;;;;;;23.90;37.40;;;;;;6171972;28;20679;-48
2022/04/30 16:30:58;;;;;;;;;;;23.90;37.40;;;;;;6169238;28;20207;-48
2022/04/30 16:34:00;;;;;;;;;;;23.90;37.40;;;;;;6170969;28;20513;-52
2022/04/30 16:37:02;;;;;;;;;;;23.80;37.40;;;;;;6172734;28;20406;-49
2022/04/30 16:40:04;;;;;;;;;;;23.90;37.40;;;;;;6168826;28;20762;-49
2022/04/30 16:43:07;;;;;;;;;;;23.90;37.40;;;;;;6143414;28;20115;-47
2022/04/30 16:46:09;;;;;;;;;;;23.90;37.40;;;;;;6145439;28;20239;-51
2022/04/30 16:49:11;;;;;;;;;;;23.90;37.40;;;;;;6169184;28;19925;-47
2022/04/30 16:52:20;;;;;;;;;;;23.90;37.40;;;;;;6171318;28;19966;-50
2022/04/30 16:58:40;;;;;;;;;;;23.90;37.40;;;;;;6177266;28;20556;-49
2022/04/30 17:01:41;;;;;;;;;;;24.00;37.30;;;;;;6173167;28;19925;-50
2022/04/30 17:04:43;;;;;;;;;;;23.90;37.30;;;;;;6174744;28;19952;-48
2022/04/30 17:07:47;;;;;;;;;;;24.00;37.30;;;;;;6163190;28;20302;-51
2022/04/30 17:10:49;;;;;;;;;;;24.00;37.30;;;;;;6152461;28;19925;-49
2022/04/30 17:13:50;;;;;;;;;;;24.00;37.30;;;;;;6169701;28;19932;-50
2022/04/30 17:16:51;;;;;;;;;;;23.90;37.30;;;;;;6166768;28;19929;-52
2022/04/30 17:19:54;;;;;;;;;;;23.90;37.30;;;;;;6176955;28;20362;-49
2022/04/30 17:22:56;;;;;;;;;;;24.00;37.30;;;;;;6174361;28;20771;-47
2022/04/30 17:25:57;;;;;;;;;;;24.20;37.40;;;;;;6170095;28;19929;-48
2022/04/30 17:28:59;;;;;;;;;;;23.90;37.30;;;;;;6170665;28;20234;-49
2022/04/30 17:38:33;;;;;;;;;;;23.90;37.30;;;;;;6170059;28;19936;-49
2022/04/30 17:41:34;;;;;;;;;;;23.80;37.20;;;;;;6171006;28;19926;-48
2022/04/30 17:44:35;;;;;;;;;;;23.90;37.30;;;;;;6157311;28;19932;-48
2022/04/30 17:47:39;;;;;;;;;;;24.10;37.40;;;;;;6170986;28;20224;-47
2022/04/30 17:50:41;;;;;;;;;;;23.90;37.30;;;;;;6147932;28;20223;-50
2022/04/30 17:53:43;;;;;;;;;;;23.80;37.30;;;;;;6167057;28;19934;-51
2022/04/30 17:56:44;;;;;;;;;;;23.90;37.40;;;;;;6173671;28;20262;-52
2022/04/30 17:59:46;;;;;;;;;;;23.80;37.40;;;;;;6170623;28;20027;-51
2022/04/30 18:02:48;;;;;;;;;;;23.90;37.40;;;;;;6166234;28;19925;-51
2022/04/30 18:05:52;;;;;;;;;;;23.90;37.40;;;;;;6160174;28;20710;-49
2022/04/30 18:08:54;;;;;;;;;;;23.90;37.40;;;;;;6149642;28;19928;-49
2022/04/30 18:11:55;;;;;;;;;;;23.90;37.40;;;;;;6167324;28;20338;-49
2022/04/30 18:14:56;;;;;;;;;;;23.80;37.40;;;;;;6157360;28;20063;-51
2022/04/30 18:17:58;;;;;;;;;;;24.00;37.50;;;;;;6168365;28;20309;-49
2022/04/30 18:21:00;;;;;;;;;;;23.90;37.40;;;;;;6174992;28;19987;-47
2022/04/30 18:24:01;;;;;;;;;;;24.00;37.50;;;;;;6170495;28;20053;-52
2022/04/30 18:27:03;;;;;;;;;;;23.80;37.40;;;;;;6171473;28;20007;-49
2022/04/30 18:30:05;;;;;;;;;;;23.80;37.50;;;;;;6172037;28;21377;-49
2022/04/30 18:33:06;;;;;;;;;;;23.80;37.50;;;;;;6171471;28;20451;-50
2022/04/30 18:36:08;;;;;;;;;;;23.70;37.40;;;;;;6162760;28;19929;-50
2022/04/30 18:39:10;;;;;;;;;;;23.90;37.50;;;;;;6166456;28;19985;-50
2022/04/30 18:42:12;;;;;;;;;;;23.90;37.50;;;;;;6163947;28;20040;-51
2022/04/30 18:45:13;;;;;;;;;;;23.80;37.50;;;;;;6169917;28;20157;-51
2022/04/30 18:48:15;;;;;;;;;;;23.70;37.50;;;;;;6165509;28;19931;-51
2022/04/30 18:51:17;;;;;;;;;;;23.70;37.50;;;;;;6168505;28;20048;-48
2022/04/30 19:04:04;;;;;;;;;;;23.60;37.50;;;;;;6157133;28;19925;-52